createdAt,value
2022-10-14T00:00:47.491Z,0
2022-10-14T00:01:47.958Z,0
2022-10-14T00:02:47.787Z,0
2022-10-14T00:03:47.523Z,0
2022-10-14T00:04:47.697Z,0
2022-10-14T00:05:47.693Z,0
2022-10-14T00:06:47.929Z,0
2022-10-14T00:07:47.403Z,0
2022-10-14T00:08:47.397Z,0
2022-10-14T00:09:47.658Z,0
2022-10-14T00:10:47.622Z,0
2022-10-14T00:11:47.866Z,0
2022-10-14T00:12:47.342Z,0
2022-10-14T00:13:47.340Z,0
2022-10-14T00:14:47.316Z,0
2022-10-14T00:15:47.551Z,0
2022-10-14T00:16:47.297Z,0
2022-10-14T00:17:47.030Z,0
2022-10-14T00:18:47.861Z,0
2022-10-14T00:19:47.536Z,0
2022-10-14T00:20:47.760Z,0
2022-10-14T00:21:47.229Z,0
2022-10-14T00:22:47.738Z,0
2022-10-14T00:23:47.475Z,0
2022-10-14T00:24:47.456Z,0
2022-10-14T00:25:47.441Z,0
2022-10-14T00:26:47.428Z,0
2022-10-14T00:27:46.910Z,0
2022-10-14T00:28:47.691Z,0
2022-10-14T00:29:46.881Z,0
2022-10-14T00:30:47.374Z,0
2022-10-14T00:31:47.400Z,0
2022-10-14T00:32:47.364Z,0
2022-10-14T00:33:47.103Z,0
2022-10-14T00:34:47.659Z,0
2022-10-14T00:35:47.605Z,0
2022-10-14T00:36:47.585Z,0
2022-10-14T00:37:47.041Z,0
2022-10-14T00:38:47.030Z,0
2022-10-14T00:39:47.016Z,0
2022-10-14T00:40:47.538Z,0
2022-10-14T00:41:47.257Z,0
2022-10-14T00:42:47.260Z,0
2022-10-14T00:43:46.988Z,0
2022-10-14T00:44:46.969Z,0
2022-10-14T00:45:47.206Z,0
2022-10-14T00:46:46.967Z,0
2022-10-14T00:47:46.931Z,0
2022-10-14T00:48:47.171Z,0
2022-10-14T00:49:46.646Z,0
2022-10-14T00:50:47.219Z,0
2022-10-14T00:51:47.420Z,0
2022-10-14T00:52:47.389Z,0
2022-10-14T00:53:47.121Z,0
2022-10-14T00:54:47.366Z,0
2022-10-14T00:55:46.847Z,0
2022-10-14T00:56:47.090Z,0
2022-10-14T00:57:46.819Z,0
2022-10-14T00:58:47.066Z,0
2022-10-14T00:59:46.792Z,0
2022-10-14T01:00:47.154Z,0
2022-10-14T01:01:47.019Z,0
2022-10-14T01:02:47.014Z,0
2022-10-14T01:03:46.995Z,0
2022-10-14T01:04:47.260Z,0
2022-10-14T01:05:46.988Z,0
2022-10-14T01:06:47.044Z,0
2022-10-14T01:07:46.990Z,0
2022-10-14T01:08:46.702Z,0
2022-10-14T01:09:46.687Z,0
2022-10-14T01:10:47.181Z,0
2022-10-14T01:11:47.166Z,0
2022-10-14T01:12:46.662Z,0
2022-10-14T01:13:46.903Z,0
2022-10-14T01:14:47.134Z,0
2022-10-14T01:15:46.617Z,0
2022-10-14T01:16:47.114Z,0
2022-10-14T01:17:46.605Z,0
2022-10-14T01:18:46.577Z,0
2022-10-14T01:19:46.827Z,0
2022-10-14T01:20:46.818Z,0
2022-10-14T01:21:46.812Z,0
2022-10-14T01:22:47.130Z,0
2022-10-14T01:23:47.068Z,0
2022-10-14T01:24:47.019Z,0
2022-10-14T01:25:46.768Z,0
2022-10-14T01:26:46.753Z,0
2022-10-14T01:27:46.741Z,0
2022-10-14T01:28:46.891Z,0
2022-10-14T01:29:46.711Z,0
2022-10-14T01:30:46.705Z,0
2022-10-14T01:31:46.707Z,0
2022-10-14T01:32:46.423Z,0
2022-10-14T01:34:18.494Z,0
2022-10-14T01:34:46.662Z,0
2022-10-14T01:35:46.390Z,0
2022-10-14T01:36:46.385Z,0
2022-10-14T01:37:46.374Z,0
2022-10-14T01:38:46.682Z,0
2022-10-14T01:39:46.641Z,0
2022-10-14T01:40:46.597Z,0
2022-10-14T01:41:46.597Z,0
2022-10-14T01:42:46.305Z,0
2022-10-14T01:43:46.563Z,0
2022-10-14T01:44:46.554Z,0
2022-10-14T01:45:46.545Z,0
2022-10-14T01:46:46.521Z,0
2022-10-14T01:47:46.261Z,0
2022-10-14T01:48:46.250Z,0
2022-10-14T01:49:46.239Z,0
2022-10-14T01:50:46.486Z,0
2022-10-14T01:51:46.461Z,0
2022-10-14T01:52:45.949Z,0
2022-10-14T01:53:46.202Z,0
2022-10-14T01:54:46.509Z,0
2022-10-14T01:55:46.705Z,0
2022-10-14T01:56:47.678Z,0
2022-10-14T01:57:46.144Z,0
2022-10-14T01:58:46.645Z,0
2022-10-14T01:59:46.381Z,0
2022-10-14T02:00:46.119Z,0
2022-10-14T02:01:46.363Z,0
2022-10-14T02:02:46.349Z,0
2022-10-14T02:03:46.333Z,0
2022-10-14T02:04:46.583Z,0
2022-10-14T02:05:46.058Z,0
2022-10-14T02:06:46.333Z,0
2022-10-14T02:07:46.300Z,0
2022-10-14T02:08:46.018Z,0
2022-10-14T02:09:46.004Z,0
2022-10-14T02:10:46.594Z,0
2022-10-14T02:11:46.261Z,0
2022-10-14T02:12:46.036Z,0
2022-10-14T02:13:45.713Z,0
2022-10-14T02:14:46.208Z,0
2022-10-14T02:15:45.953Z,0
2022-10-14T02:16:46.440Z,0
2022-10-14T02:17:46.315Z,0
2022-10-14T02:18:46.311Z,0
2022-10-14T02:19:46.152Z,0
2022-10-14T02:20:46.143Z,0
2022-10-14T02:21:45.951Z,0
2022-10-14T02:22:46.117Z,0
2022-10-14T02:23:45.596Z,0
2022-10-14T02:24:46.148Z,0
2022-10-14T02:25:45.629Z,0
2022-10-14T02:26:46.459Z,0
2022-10-14T02:27:46.406Z,0
2022-10-14T02:28:46.737Z,0
2022-10-14T02:29:46.098Z,0
2022-10-14T02:30:46.084Z,0
2022-10-14T02:31:46.086Z,0
2022-10-14T02:32:46.070Z,0
2022-10-14T02:33:45.794Z,0
2022-10-14T02:34:46.054Z,0
2022-10-14T02:35:45.768Z,0
2022-10-14T02:36:46.285Z,0
2022-10-14T02:37:46.015Z,0
2022-10-14T02:38:46.265Z,0
2022-10-14T02:39:46.241Z,0
2022-10-14T02:40:45.965Z,0
2022-10-14T02:41:45.705Z,0
2022-10-14T02:42:46.027Z,0
2022-10-14T02:43:45.954Z,0
2022-10-14T02:44:45.927Z,0
2022-10-14T02:45:45.908Z,0
2022-10-14T02:46:45.652Z,0
2022-10-14T02:47:45.642Z,0
2022-10-14T02:48:45.874Z,0
2022-10-14T02:49:45.613Z,0
2022-10-14T02:50:45.859Z,0
2022-10-14T02:51:45.651Z,0
2022-10-14T02:52:45.832Z,0
2022-10-14T02:53:45.822Z,0
2022-10-14T02:54:45.297Z,0
2022-10-14T02:55:45.575Z,0
2022-10-14T02:56:45.803Z,0
2022-10-14T02:57:45.788Z,0
2022-10-14T02:58:45.849Z,0
2022-10-14T02:59:45.789Z,0
2022-10-14T03:00:45.519Z,0
2022-10-14T03:01:45.420Z,0
2022-10-14T03:02:45.463Z,0
2022-10-14T03:03:45.497Z,0
2022-10-14T03:04:45.700Z,0
2022-10-14T03:05:45.950Z,0
2022-10-14T03:06:45.427Z,0
2022-10-14T03:07:45.418Z,0
2022-10-14T03:08:45.668Z,0
2022-10-14T03:09:45.900Z,0
2022-10-14T03:10:45.630Z,0
2022-10-14T03:11:45.367Z,0
2022-10-14T03:12:45.885Z,0
2022-10-14T03:13:45.604Z,0
2022-10-14T03:14:45.667Z,0
2022-10-14T03:15:45.855Z,0
2022-10-14T03:16:45.316Z,0
2022-10-14T03:17:45.807Z,0
2022-10-14T03:18:45.601Z,0
2022-10-14T03:19:45.289Z,0
2022-10-14T03:20:44.998Z,0
2022-10-14T03:21:45.250Z,0
2022-10-14T03:22:45.252Z,0
2022-10-14T03:23:45.490Z,0
2022-10-14T03:24:45.227Z,0
2022-10-14T03:25:45.462Z,0
2022-10-14T03:26:45.464Z,0
2022-10-14T03:27:45.455Z,0
2022-10-14T03:28:45.990Z,0
2022-10-14T03:29:45.163Z,0
2022-10-14T03:30:45.724Z,0
2022-10-14T03:31:45.416Z,0
2022-10-14T03:49:52.512Z,0
2022-10-14T03:50:51.909Z,0
2022-10-14T03:51:51.880Z,0
2022-10-14T03:52:59.781Z,0
2022-10-14T03:53:52.090Z,0
2022-10-14T03:54:51.835Z,0
2022-10-14T03:55:52.081Z,0
2022-10-14T03:56:52.328Z,0
2022-10-14T03:57:52.043Z,0
2022-10-14T03:58:52.297Z,0
2022-10-14T03:59:52.026Z,0
2022-10-14T04:00:52.000Z,0
2022-10-14T04:01:52.334Z,0
2022-10-14T04:02:51.720Z,0
2022-10-14T04:03:51.977Z,0
2022-10-14T04:04:51.972Z,0
2022-10-14T04:05:52.299Z,0
2022-10-14T04:06:52.195Z,0
2022-10-14T04:07:51.669Z,0
2022-10-14T04:08:51.687Z,0
2022-10-14T04:09:51.903Z,0
2022-10-14T04:10:51.877Z,0
2022-10-14T04:11:52.126Z,0
2022-10-14T04:12:51.872Z,0
2022-10-14T04:13:51.591Z,0
2022-10-14T04:14:52.095Z,0
2022-10-14T04:15:51.834Z,0
2022-10-14T04:16:56.605Z,0
2022-10-14T04:17:51.299Z,0
2022-10-14T04:18:51.562Z,0
2022-10-14T04:19:52.054Z,0
2022-10-14T04:20:51.760Z,0
2022-10-14T04:21:52.106Z,0
2022-10-14T04:22:51.498Z,0
2022-10-14T04:23:51.735Z,0
2022-10-14T04:24:51.468Z,0
2022-10-14T04:25:51.704Z,0
2022-10-14T04:26:51.450Z,0
2022-10-14T04:27:51.684Z,0
2022-10-14T04:28:52.052Z,0
2022-10-14T04:29:51.654Z,0
2022-10-14T04:30:51.667Z,0
2022-10-14T04:31:51.389Z,0
2022-10-14T04:32:51.621Z,0
2022-10-14T04:33:51.896Z,0
2022-10-14T04:34:51.609Z,0
2022-10-14T04:35:51.594Z,0
2022-10-14T04:36:51.330Z,0
2022-10-14T04:37:51.917Z,0
2022-10-14T04:38:51.820Z,0
2022-10-14T04:39:51.552Z,0
2022-10-14T04:40:51.544Z,0
2022-10-14T04:41:51.537Z,0
2022-10-14T04:42:51.259Z,0
2022-10-14T04:43:51.504Z,0
2022-10-14T04:44:51.496Z,0
2022-10-14T04:45:51.225Z,0
2022-10-14T04:46:51.720Z,0
2022-10-14T04:47:55.258Z,0
2022-10-14T04:48:51.197Z,0
2022-10-14T04:49:51.438Z,0
2022-10-14T04:50:51.431Z,0
2022-10-14T04:51:51.421Z,0
2022-10-14T04:52:51.414Z,0
2022-10-14T04:53:51.747Z,0
2022-10-14T04:54:51.134Z,0
2022-10-14T04:55:51.648Z,0
2022-10-14T04:56:51.373Z,0
2022-10-14T04:57:51.096Z,0
2022-10-14T04:58:51.585Z,0
2022-10-14T04:59:51.326Z,0
2022-10-14T05:00:51.314Z,0
2022-10-14T05:01:51.308Z,0
2022-10-14T05:02:51.294Z,0
2022-10-14T05:03:51.282Z,0
2022-10-14T05:04:51.533Z,0
2022-10-14T05:05:51.011Z,4
2022-10-14T05:06:51.507Z,4
2022-10-14T05:07:51.501Z,0
2022-10-14T05:08:51.233Z,0
2022-10-14T05:10:01.164Z,4
2022-10-14T05:10:50.960Z,4
2022-10-14T05:11:51.458Z,4
2022-10-14T05:12:50.940Z,8
2022-10-14T05:13:51.176Z,4
2022-10-14T05:14:51.151Z,8
2022-10-14T05:15:51.166Z,12
2022-10-14T05:16:51.152Z,16
2022-10-14T05:17:51.117Z,16
2022-10-14T05:18:51.362Z,20
2022-10-14T05:19:51.101Z,24
2022-10-14T05:20:51.095Z,28
2022-10-14T05:21:51.338Z,32
2022-10-14T05:22:50.816Z,40
2022-10-14T05:23:51.060Z,40
2022-10-14T05:24:51.313Z,44
2022-10-14T05:25:51.410Z,48
2022-10-14T05:26:51.042Z,48
2022-10-14T05:27:51.267Z,56
2022-10-14T05:28:51.078Z,56
2022-10-14T05:29:51.010Z,56
2022-10-14T05:30:50.729Z,56
2022-10-14T05:31:50.981Z,56
2022-10-14T05:32:50.954Z,56
2022-10-14T05:33:51.209Z,60
2022-10-14T05:34:50.690Z,60
2022-10-14T05:36:05.650Z,52
2022-10-14T05:36:51.183Z,44
2022-10-14T05:37:51.231Z,52
2022-10-14T05:38:50.644Z,68
2022-10-14T05:39:50.623Z,72
2022-10-14T05:40:50.628Z,76
2022-10-14T05:41:51.219Z,80
2022-10-14T05:42:51.128Z,88
2022-10-14T05:43:51.084Z,92
2022-10-14T05:44:50.823Z,100
2022-10-14T05:45:51.063Z,112
2022-10-14T05:46:51.072Z,128
2022-10-14T05:47:50.793Z,152
2022-10-14T05:48:50.786Z,180
2022-10-14T05:49:50.523Z,216
2022-10-14T05:50:50.256Z,264
2022-10-14T05:51:50.499Z,288
2022-10-14T05:52:50.479Z,280
2022-10-14T05:53:50.982Z,268
2022-10-14T05:54:50.466Z,236
2022-10-14T05:55:50.451Z,204
2022-10-14T05:56:50.432Z,176
2022-10-14T05:57:51.045Z,156
2022-10-14T05:58:50.165Z,148
2022-10-14T05:59:50.663Z,152
2022-10-14T06:00:50.145Z,152
2022-10-14T06:01:50.123Z,144
2022-10-14T06:02:50.866Z,160
2022-10-14T06:03:50.609Z,176
2022-10-14T06:04:50.601Z,188
2022-10-14T06:05:50.602Z,220
2022-10-14T06:06:50.326Z,208
2022-10-14T06:07:50.320Z,200
2022-10-14T06:08:50.822Z,204
2022-10-14T06:09:50.043Z,208
2022-10-14T06:10:50.287Z,224
2022-10-14T06:11:50.528Z,240
2022-10-14T06:12:50.532Z,256
2022-10-14T06:13:50.869Z,280
2022-10-14T06:14:50.759Z,300
2022-10-14T06:15:50.222Z,292
2022-10-14T06:16:50.468Z,304
2022-10-14T06:17:50.719Z,328
2022-10-14T06:18:56.591Z,356
2022-10-14T06:19:50.177Z,384
2022-10-14T06:20:50.681Z,460
2022-10-14T06:21:50.672Z,500
2022-10-14T06:22:50.163Z,512
2022-10-14T06:23:50.416Z,508
2022-10-14T06:24:50.131Z,532
2022-10-14T06:25:50.124Z,600
2022-10-14T06:26:50.109Z,644
2022-10-14T06:27:50.098Z,560
2022-10-14T06:28:51.001Z,436
2022-10-14T06:29:50.681Z,388
2022-10-14T06:30:50.324Z,384
2022-10-14T06:31:50.319Z,384
2022-10-14T06:32:50.564Z,368
2022-10-14T06:33:50.567Z,384
2022-10-14T06:34:50.553Z,420
2022-10-14T06:35:50.281Z,484
2022-10-14T06:36:50.518Z,524
2022-10-14T06:37:49.735Z,484
2022-10-14T06:38:50.491Z,544
2022-10-14T06:39:50.498Z,612
2022-10-14T06:40:50.223Z,640
2022-10-14T06:41:49.974Z,632
2022-10-14T06:42:49.968Z,640
2022-10-14T06:43:50.207Z,692
2022-10-14T06:44:50.461Z,700
2022-10-14T06:45:50.506Z,704
2022-10-14T06:46:50.138Z,748
2022-10-14T06:47:50.142Z,812
2022-10-14T06:48:55.121Z,792
2022-10-14T06:49:50.110Z,748
2022-10-14T06:50:49.846Z,712
2022-10-14T06:51:50.107Z,752
2022-10-14T06:52:49.824Z,884
2022-10-14T06:53:49.818Z,1044
2022-10-14T06:54:55.362Z,1408
2022-10-14T06:55:50.067Z,1524
2022-10-14T06:56:49.774Z,1332
2022-10-14T06:57:50.274Z,1032
2022-10-14T06:58:50.273Z,900
2022-10-14T06:59:50.002Z,892
2022-10-14T07:00:55.333Z,872
2022-10-14T07:01:50.647Z,888
2022-10-14T07:02:49.468Z,864
2022-10-14T07:03:51.578Z,764
2022-10-14T07:04:50.214Z,692
2022-10-14T07:05:49.680Z,676
2022-10-14T07:06:49.928Z,824
2022-10-14T07:07:50.044Z,912
2022-10-14T07:08:49.905Z,1216
2022-10-14T07:09:49.911Z,1560
2022-10-14T07:10:49.634Z,1648
2022-10-14T07:11:49.627Z,1328
2022-10-14T07:12:49.602Z,1148
2022-10-14T07:13:49.594Z,1356
2022-10-14T07:14:49.598Z,1576
2022-10-14T07:15:49.836Z,1652
2022-10-14T07:16:50.145Z,1848
2022-10-14T07:17:50.102Z,1852
2022-10-14T07:18:49.801Z,1660
2022-10-14T07:19:49.537Z,1876
2022-10-14T07:20:49.523Z,2068
2022-10-14T07:21:49.506Z,1840
2022-10-14T07:22:49.760Z,1460
2022-10-14T07:23:49.746Z,1648
2022-10-14T07:24:49.371Z,1412
2022-10-14T07:25:49.466Z,1636
2022-10-14T07:26:49.759Z,1624
2022-10-14T07:27:49.453Z,1440
2022-10-14T07:28:49.925Z,1700
2022-10-14T07:29:49.684Z,2096
2022-10-14T07:30:49.675Z,2256
2022-10-14T07:31:49.399Z,1764
2022-10-14T07:32:49.727Z,1692
2022-10-14T07:33:49.692Z,1828
2022-10-14T07:34:50.097Z,1820
2022-10-14T07:35:49.619Z,2340
2022-10-14T07:36:49.604Z,2048
2022-10-14T07:37:49.615Z,1896
2022-10-14T07:38:49.333Z,1672
2022-10-14T07:39:49.569Z,2148
2022-10-14T07:40:49.304Z,1852
2022-10-14T07:41:49.561Z,2080
2022-10-14T07:42:49.290Z,1768
2022-10-14T07:43:49.270Z,2036
2022-10-14T07:44:49.788Z,2232
2022-10-14T07:45:49.273Z,2664
2022-10-14T07:46:49.258Z,2932
2022-10-14T07:47:49.487Z,2948
2022-10-14T07:49:04.296Z,2868
2022-10-14T07:49:49.509Z,3040
2022-10-14T07:50:49.455Z,3020
2022-10-14T07:51:49.202Z,2764
2022-10-14T07:52:49.693Z,2940
2022-10-14T07:53:49.420Z,3328
2022-10-14T07:54:49.422Z,3116
2022-10-14T07:55:49.401Z,2776
2022-10-14T07:56:49.652Z,2848
2022-10-14T07:57:49.385Z,3700
2022-10-14T07:58:51.365Z,4344
2022-10-14T07:59:49.380Z,3556
2022-10-14T08:00:49.613Z,4128
2022-10-14T08:01:49.493Z,4492
2022-10-14T08:02:49.596Z,4996
2022-10-14T08:03:49.065Z,5008
2022-10-14T08:04:49.752Z,5284
2022-10-14T08:05:49.073Z,4248
2022-10-14T08:06:49.582Z,4236
2022-10-14T08:07:49.553Z,4616
2022-10-14T08:08:49.280Z,5700
2022-10-14T08:09:48.780Z,5956
2022-10-14T08:10:49.541Z,6544
2022-10-14T08:11:49.516Z,6932
2022-10-14T08:12:49.238Z,6844
2022-10-14T08:13:52.799Z,6580
2022-10-14T08:14:48.798Z,5968
2022-10-14T08:15:48.949Z,5640
2022-10-14T08:16:50.058Z,6232
2022-10-14T08:17:49.436Z,6992
2022-10-14T08:18:48.931Z,7052
2022-10-14T08:19:48.917Z,6116
2022-10-14T08:20:49.241Z,5420
2022-10-14T08:21:48.921Z,5200
2022-10-14T08:22:49.141Z,4864
2022-10-14T08:23:48.888Z,5036
2022-10-14T08:24:49.116Z,5184
2022-10-14T08:25:49.114Z,5552
2022-10-14T08:26:48.839Z,6228
2022-10-14T08:27:48.834Z,6620
2022-10-14T08:28:49.454Z,6944
2022-10-14T08:29:48.813Z,7356
2022-10-14T08:30:48.803Z,7408
2022-10-14T08:31:49.058Z,7548
2022-10-14T08:32:49.301Z,7436
2022-10-14T08:33:49.292Z,6916
2022-10-14T08:34:48.788Z,6228
2022-10-14T08:35:54.237Z,5880
2022-10-14T08:36:49.335Z,5932
2022-10-14T08:37:49.289Z,6160
2022-10-14T08:38:48.728Z,5908
2022-10-14T08:39:48.724Z,5232
2022-10-14T08:40:52.043Z,4568
2022-10-14T08:41:48.955Z,5144
2022-10-14T08:42:48.958Z,5516
2022-10-14T08:43:48.958Z,6296
2022-10-14T08:44:48.944Z,6436
2022-10-14T08:45:48.964Z,5840
2022-10-14T08:46:55.594Z,5040
2022-10-14T08:47:49.181Z,5220
2022-10-14T08:48:48.889Z,5304
2022-10-14T08:49:48.890Z,4716
2022-10-14T08:50:48.881Z,5756
2022-10-14T08:51:48.898Z,5624
2022-10-14T08:52:49.205Z,5292
2022-10-14T08:53:48.879Z,4852
2022-10-14T08:54:48.841Z,4676
2022-10-14T08:55:49.103Z,5092
2022-10-14T08:56:48.579Z,6112
2022-10-14T08:57:48.840Z,6440
2022-10-14T08:58:48.563Z,6148
2022-10-14T08:59:48.811Z,5180
2022-10-14T09:00:48.804Z,5024
2022-10-14T09:01:49.031Z,5836
2022-10-14T09:02:48.516Z,6688
2022-10-14T09:03:49.092Z,7148
2022-10-14T09:04:48.759Z,6960
2022-10-14T09:05:49.757Z,6840
2022-10-14T09:06:48.241Z,7400
2022-10-14T09:07:48.936Z,7324
2022-10-14T09:08:49.089Z,6772
2022-10-14T09:09:48.842Z,5660
2022-10-14T09:10:48.966Z,4648
2022-10-14T09:11:48.965Z,5728
2022-10-14T09:12:48.701Z,6996
2022-10-14T09:13:48.941Z,7396
2022-10-14T09:14:48.667Z,7640
2022-10-14T09:15:48.659Z,7380
2022-10-14T09:16:54.444Z,6368
2022-10-14T09:17:48.907Z,6276
2022-10-14T09:18:54.572Z,7492
2022-10-14T09:19:48.367Z,7172
2022-10-14T09:20:48.630Z,6120
2022-10-14T09:21:59.932Z,6296
2022-10-14T09:22:49.111Z,6508
2022-10-14T09:23:48.904Z,4044
2022-10-14T09:24:48.895Z,3836
2022-10-14T09:25:48.850Z,3636
2022-10-14T09:26:48.452Z,4332
2022-10-14T09:27:48.775Z,5124
2022-10-14T09:28:48.888Z,3824
2022-10-14T09:29:48.040Z,3972
2022-10-14T09:30:48.271Z,3324
2022-10-14T09:31:48.528Z,4652
2022-10-14T09:32:48.774Z,4196
2022-10-14T09:33:49.778Z,4296
2022-10-14T09:34:48.242Z,4432
2022-10-14T09:35:48.630Z,4772
2022-10-14T09:36:48.765Z,3468
2022-10-14T09:37:48.226Z,3620
2022-10-14T09:38:48.463Z,3472
2022-10-14T09:39:48.227Z,4912
2022-10-14T09:40:48.503Z,6376
2022-10-14T09:41:48.467Z,7396
2022-10-14T09:42:48.441Z,7396
2022-10-14T09:43:48.433Z,7704
2022-10-14T09:44:48.419Z,7248
2022-10-14T09:45:48.401Z,6260
2022-10-14T09:46:48.388Z,5152
2022-10-14T09:47:48.135Z,4940
2022-10-14T09:48:48.620Z,6312
2022-10-14T09:49:48.174Z,7488
2022-10-14T09:50:48.616Z,7660
2022-10-14T09:51:47.837Z,7200
2022-10-14T09:52:48.357Z,7916
2022-10-14T09:53:48.588Z,8204
2022-10-14T09:55:48.404Z,8304
2022-10-14T09:56:49.175Z,8188
2022-10-14T09:57:48.606Z,8308
2022-10-14T09:58:48.032Z,8960
2022-10-14T09:59:48.533Z,8928
2022-10-14T10:00:48.013Z,8332
2022-10-14T10:01:48.261Z,8680
2022-10-14T10:02:48.016Z,8884
2022-10-14T10:03:49.370Z,8988
2022-10-14T10:04:48.544Z,9112
2022-10-14T10:05:48.240Z,8072
2022-10-14T10:06:48.235Z,8668
2022-10-14T10:07:48.225Z,8428
2022-10-14T10:08:47.964Z,8188
2022-10-14T10:09:47.944Z,7652
2022-10-14T10:10:47.941Z,7104
2022-10-14T10:11:48.465Z,6680
2022-10-14T10:12:48.494Z,5668
2022-10-14T10:13:48.483Z,4660
2022-10-14T10:14:48.165Z,4540
2022-10-14T10:15:48.544Z,4624
2022-10-14T10:16:48.402Z,5032
2022-10-14T10:17:48.023Z,5452
2022-10-14T10:18:48.022Z,5628
2022-10-14T10:19:48.003Z,5436
2022-10-14T10:20:48.504Z,5760
2022-10-14T10:21:48.265Z,6268
2022-10-14T10:22:48.240Z,7060
2022-10-14T10:23:48.223Z,7332
2022-10-14T10:24:47.967Z,7512
2022-10-14T10:25:47.962Z,7840
2022-10-14T10:26:48.205Z,8036
2022-10-14T10:27:48.240Z,8176
2022-10-14T10:28:48.484Z,8372
2022-10-14T10:29:48.215Z,8468
2022-10-14T10:30:48.184Z,8116
2022-10-14T10:31:47.644Z,7852
2022-10-14T10:32:48.199Z,7560
2022-10-14T10:33:48.406Z,7288
2022-10-14T10:34:47.892Z,7384
2022-10-14T10:35:47.883Z,7420
2022-10-14T10:36:48.127Z,7492
2022-10-14T10:37:47.620Z,7484
2022-10-14T10:38:48.371Z,7520
2022-10-14T10:39:48.099Z,7400
2022-10-14T10:40:48.073Z,7244
2022-10-14T10:41:48.142Z,7024
2022-10-14T10:42:48.336Z,6624
2022-10-14T10:43:48.116Z,6292
2022-10-14T10:44:48.455Z,5736
2022-10-14T10:45:48.525Z,5552
2022-10-14T10:46:48.049Z,5400
2022-10-14T10:47:47.807Z,5236
2022-10-14T10:48:48.057Z,5136
2022-10-14T10:49:47.964Z,5136
2022-10-14T10:50:48.303Z,5320
2022-10-14T10:51:48.266Z,5612
2022-10-14T10:52:48.271Z,5776
2022-10-14T10:53:48.255Z,6036
2022-10-14T10:54:47.752Z,6292
2022-10-14T10:56:48.249Z,6988
2022-10-14T10:57:47.963Z,7712
2022-10-14T10:58:47.722Z,7896
2022-10-14T10:59:47.978Z,7828
2022-10-14T11:00:48.002Z,7688
2022-10-14T11:01:48.690Z,7928
2022-10-14T11:02:47.682Z,8156
2022-10-14T11:03:47.926Z,8132
2022-10-14T11:04:47.669Z,7936
2022-10-14T11:05:48.199Z,7568
2022-10-14T11:06:47.643Z,7648
2022-10-14T11:07:48.151Z,7760
2022-10-14T11:08:47.905Z,7500
2022-10-14T11:09:47.697Z,6984
2022-10-14T11:10:47.878Z,7048
2022-10-14T11:11:47.882Z,7316
2022-10-14T11:12:47.627Z,7348
2022-10-14T11:13:47.599Z,7664
2022-10-14T11:14:47.848Z,7204
2022-10-14T11:15:47.865Z,6504
2022-10-14T11:16:48.151Z,6412
2022-10-14T11:17:48.339Z,6628
2022-10-14T11:18:47.965Z,6764
2022-10-14T11:19:47.300Z,6312
2022-10-14T11:20:47.559Z,5964
2022-10-14T11:21:47.555Z,5688
2022-10-14T11:22:47.791Z,5632
2022-10-14T11:23:47.532Z,5912
2022-10-14T11:24:47.523Z,6252
2022-10-14T11:25:48.031Z,6528
2022-10-14T11:26:47.534Z,6324
2022-10-14T11:27:47.501Z,6472
2022-10-14T11:28:47.852Z,6600
2022-10-14T11:29:48.004Z,6828
2022-10-14T11:30:47.996Z,7232
2022-10-14T11:31:47.767Z,6944
2022-10-14T11:32:48.021Z,6900
2022-10-14T11:33:47.763Z,7008
2022-10-14T11:34:47.971Z,6740
2022-10-14T11:35:47.963Z,6704
2022-10-14T11:36:47.447Z,6716
2022-10-14T11:37:47.438Z,6920
2022-10-14T11:38:47.700Z,6580
2022-10-14T11:39:47.669Z,6404
2022-10-14T11:40:47.664Z,5972
2022-10-14T11:41:47.671Z,5556
2022-10-14T11:42:47.403Z,5436
2022-10-14T11:43:47.655Z,5768
2022-10-14T11:44:47.650Z,5788
2022-10-14T11:45:47.897Z,6072
2022-10-14T11:46:47.635Z,6436
2022-10-14T11:47:47.662Z,6788
2022-10-14T11:48:48.233Z,6340
2022-10-14T11:49:47.884Z,6464
2022-10-14T11:50:47.873Z,6876
2022-10-14T11:51:47.629Z,6984
2022-10-14T11:52:47.850Z,7188
2022-10-14T11:53:47.599Z,7024
2022-10-14T11:54:47.585Z,6752
2022-10-14T11:55:47.320Z,6816
2022-10-14T11:56:47.562Z,6876
2022-10-14T11:57:47.573Z,7112
2022-10-14T11:58:47.295Z,6724
2022-10-14T11:59:47.305Z,6220
2022-10-14T12:00:47.281Z,6392
2022-10-14T12:01:47.791Z,5712
2022-10-14T12:02:47.629Z,5604
2022-10-14T12:03:47.581Z,5500
2022-10-14T12:04:47.633Z,5332
2022-10-14T12:05:47.883Z,5304
2022-10-14T12:06:47.587Z,5200
2022-10-14T12:07:47.822Z,5652
2022-10-14T12:08:47.567Z,6136
2022-10-14T12:09:47.327Z,5652
2022-10-14T12:10:47.305Z,5960
2022-10-14T12:11:47.798Z,5832
2022-10-14T12:12:47.790Z,6060
2022-10-14T12:13:47.545Z,6244
2022-10-14T12:14:47.527Z,5724
2022-10-14T12:15:47.560Z,5456
2022-10-14T12:16:47.515Z,5276
2022-10-14T12:17:47.560Z,5376
2022-10-14T12:18:47.250Z,5536
2022-10-14T12:19:47.793Z,6180
2022-10-14T12:20:47.787Z,7044
2022-10-14T12:21:53.309Z,7068
2022-10-14T12:22:47.790Z,6996
2022-10-14T12:23:47.216Z,7052
2022-10-14T12:24:47.203Z,6976
2022-10-14T12:25:47.457Z,6736
2022-10-14T12:26:47.718Z,6364
2022-10-14T12:27:47.199Z,6376
2022-10-14T12:28:47.541Z,6352
2022-10-14T12:29:47.186Z,6072
2022-10-14T12:30:47.443Z,5876
2022-10-14T12:31:47.183Z,5944
2022-10-14T12:32:47.666Z,5820
2022-10-14T12:33:47.401Z,5784
2022-10-14T12:34:47.155Z,5888
2022-10-14T12:35:47.165Z,5816
2022-10-14T12:36:47.733Z,5560
2022-10-14T12:37:47.611Z,5340
2022-10-14T12:38:47.372Z,5128
2022-10-14T12:39:47.374Z,4908
2022-10-14T12:40:47.112Z,4812
2022-10-14T12:41:47.631Z,4816
2022-10-14T12:42:48.395Z,4908
2022-10-14T12:43:52.273Z,5140
2022-10-14T12:44:46.859Z,5236
2022-10-14T12:45:47.428Z,5276
2022-10-14T12:46:47.335Z,5284
2022-10-14T12:47:47.079Z,5168
2022-10-14T12:48:47.564Z,5060
2022-10-14T12:49:47.301Z,5044
2022-10-14T12:50:47.049Z,4928
2022-10-14T12:51:47.318Z,4740
2022-10-14T12:52:47.591Z,4720
2022-10-14T12:53:47.057Z,4660
2022-10-14T12:54:47.642Z,4396
2022-10-14T12:55:46.762Z,4020
2022-10-14T12:56:47.260Z,3680
2022-10-14T12:57:49.377Z,3540
2022-10-14T12:58:47.257Z,3360
2022-10-14T12:59:47.258Z,3304
2022-10-14T13:00:47.518Z,3312
2022-10-14T13:01:47.513Z,3324
2022-10-14T13:02:47.185Z,3120
2022-10-14T13:03:47.592Z,2928
2022-10-14T13:04:46.957Z,2808
2022-10-14T13:05:47.948Z,2756
2022-10-14T13:06:47.027Z,2732
2022-10-14T13:07:50.393Z,3080
2022-10-14T13:08:47.493Z,3208
2022-10-14T13:09:47.456Z,3424
2022-10-14T13:10:53.137Z,3492
2022-10-14T13:11:47.166Z,3800
2022-10-14T13:12:46.645Z,3828
2022-10-14T13:13:46.687Z,3964
2022-10-14T13:14:46.879Z,4092
2022-10-14T13:15:47.145Z,4104
2022-10-14T13:16:47.191Z,3812
2022-10-14T13:17:47.248Z,3664
2022-10-14T13:18:47.389Z,3272
2022-10-14T13:19:46.885Z,2988
2022-10-14T13:20:47.109Z,2912
2022-10-14T13:21:47.101Z,3112
2022-10-14T13:22:46.825Z,3212
2022-10-14T13:23:47.336Z,2904
2022-10-14T13:24:47.448Z,2712
2022-10-14T13:25:47.483Z,2432
2022-10-14T13:26:46.803Z,2196
2022-10-14T13:27:46.540Z,1880
2022-10-14T13:28:47.628Z,1820
2022-10-14T13:29:47.302Z,1696
2022-10-14T13:30:46.904Z,1680
2022-10-14T13:31:47.359Z,1764
2022-10-14T13:32:47.573Z,1768
2022-10-14T13:33:46.833Z,1872
2022-10-14T13:34:46.937Z,1876
2022-10-14T13:35:46.990Z,1748
2022-10-14T13:36:47.155Z,1756
2022-10-14T13:37:52.174Z,2080
2022-10-14T13:38:47.149Z,2064
2022-10-14T13:39:46.490Z,2012
2022-10-14T13:40:47.715Z,2320
2022-10-14T13:41:47.454Z,2004
2022-10-14T13:42:47.218Z,1768
2022-10-14T13:43:47.238Z,1712
2022-10-14T13:45:49.184Z,1456
2022-10-14T13:46:46.911Z,1456
2022-10-14T13:47:46.676Z,1456
2022-10-14T13:48:46.911Z,1472
2022-10-14T13:49:47.252Z,1536
2022-10-14T13:50:46.983Z,1624
2022-10-14T13:51:46.943Z,1732
2022-10-14T13:52:47.520Z,1860
2022-10-14T13:53:50.956Z,1984
2022-10-14T13:54:47.160Z,2052
2022-10-14T13:55:50.331Z,2156
2022-10-14T13:56:47.208Z,2228
2022-10-14T13:58:18.685Z,2292
2022-10-14T13:58:47.321Z,2300
2022-10-14T14:00:43.737Z,2196
2022-10-14T14:00:53.345Z,2192
2022-10-14T14:01:53.915Z,2192
2022-10-14T14:03:05.499Z,2192
2022-10-14T14:03:53.575Z,2200
2022-10-14T14:04:53.563Z,2240
2022-10-14T14:05:53.055Z,2308
2022-10-14T14:08:39.036Z,2184
2022-10-14T14:08:52.573Z,2232
2022-10-14T14:09:51.149Z,2212
2022-10-14T14:11:23.188Z,2136
2022-10-14T14:11:51.152Z,2120
2022-10-14T14:12:50.873Z,2188
2022-10-14T14:14:04.423Z,2216